createdAt,value
2023-01-13T00:02:08.904Z,1.55
2023-01-13T00:06:16.078Z,1.67
2023-01-13T00:14:19.536Z,1.25
2023-01-13T00:18:21.291Z,1.23
2023-01-13T00:22:23.023Z,1.52
2023-01-13T00:26:30.586Z,1.30
2023-01-13T00:30:32.721Z,1.30
2023-01-13T00:34:34.429Z,2.58
2023-01-13T00:38:37.809Z,1.35
2023-01-13T00:42:58.056Z,1.25
2023-01-13T00:46:59.802Z,2.05
2023-01-13T00:51:07.526Z,2.60
2023-01-13T00:55:09.344Z,1.83
2023-01-13T00:59:12.977Z,1.50
2023-01-13T01:03:14.684Z,1.85
2023-01-13T01:07:16.402Z,2.15
2023-01-13T01:11:21.561Z,1.92
2023-01-13T01:15:23.388Z,3.38
2023-01-13T01:19:25.170Z,1.25
2023-01-13T01:23:30.688Z,2.00
2023-01-13T01:27:32.593Z,1.30
2023-01-13T01:31:34.390Z,2.10
2023-01-13T01:35:39.904Z,2.75
2023-01-13T01:39:41.602Z,1.05
2023-01-13T01:44:00.160Z,1.25
2023-01-13T01:48:04.438Z,3.72
2023-01-13T01:52:11.326Z,3.92
2023-01-13T01:56:13.079Z,1.10
2023-01-13T02:00:15.296Z,1.08
2023-01-13T02:04:23.281Z,1.35
2023-01-13T02:08:25.180Z,1.10
2023-01-13T02:12:32.016Z,1.92
2023-01-13T02:16:33.918Z,1.52
2023-01-13T02:20:35.569Z,1.20
2023-01-13T02:25:07.948Z,2.40
2023-01-13T02:29:49.756Z,1.38
2023-01-13T02:34:04.408Z,1.60
2023-01-13T02:38:10.945Z,1.10
2023-01-13T02:42:59.431Z,1.52
2023-01-13T02:47:06.438Z,2.30
2023-01-13T02:51:14.374Z,1.42
2023-01-13T02:55:20.770Z,1.23
2023-01-13T02:59:26.235Z,1.15
2023-01-13T03:03:28.064Z,0.85
2023-01-13T03:07:48.060Z,1.40
2023-01-13T03:12:18.996Z,1.00
2023-01-13T03:16:38.412Z,1.10
2023-01-13T03:21:15.777Z,1.10
2023-01-13T03:25:20.346Z,0.90
2023-01-13T03:29:28.060Z,1.33
2023-01-13T03:33:45.778Z,0.88
2023-01-13T03:37:53.101Z,0.82
2023-01-13T03:42:00.941Z,0.80
2023-01-13T03:46:08.641Z,1.00
2023-01-13T03:50:14.346Z,1.70
2023-01-13T03:54:17.346Z,1.20
2023-01-13T03:58:37.922Z,0.98
2023-01-13T04:02:47.847Z,0.80
2023-01-13T04:07:03.429Z,1.10
2023-01-13T04:11:19.468Z,1.05
2023-01-13T04:15:24.229Z,1.83
2023-01-13T04:19:26.514Z,1.05
2023-01-13T04:23:29.729Z,0.90
2023-01-13T04:27:31.847Z,1.00
2023-01-13T04:31:33.667Z,1.80
2023-01-13T04:35:36.841Z,1.33
2023-01-13T04:39:38.908Z,1.35
2023-01-13T04:43:40.724Z,1.65
2023-01-13T04:47:42.746Z,1.27
2023-01-13T04:51:44.628Z,1.10
2023-01-13T04:55:47.971Z,2.13
2023-01-13T04:59:49.900Z,1.25
2023-01-13T05:03:51.708Z,2.35
2023-01-13T05:07:53.657Z,1.30
2023-01-13T05:12:13.932Z,2.38
2023-01-13T05:16:34.544Z,0.90
2023-01-13T05:20:36.508Z,1.20
2023-01-13T05:24:57.618Z,1.10
2023-01-13T05:28:59.694Z,0.90
2023-01-13T05:33:01.690Z,0.90
2023-01-13T05:37:05.732Z,0.90
2023-01-13T05:41:26.563Z,1.38
2023-01-13T05:45:30.292Z,1.40
2023-01-13T05:49:32.392Z,1.10
2023-01-13T05:53:35.381Z,1.13
2023-01-13T05:57:37.465Z,0.82
2023-01-13T06:01:39.220Z,0.90
2023-01-13T06:05:41.208Z,1.05
2023-01-13T06:09:42.976Z,0.90
2023-01-13T06:13:44.766Z,1.00
2023-01-13T06:17:47.034Z,1.48
2023-01-13T06:21:48.866Z,1.17
2023-01-13T06:26:03.093Z,1.48
2023-01-13T06:30:05.208Z,1.20
2023-01-13T06:34:13.471Z,1.15
2023-01-13T06:38:17.805Z,1.52
2023-01-13T06:42:38.115Z,2.42
2023-01-13T06:46:39.946Z,3.17
2023-01-13T06:50:42.352Z,1.25
2023-01-13T06:54:44.161Z,1.10
2023-01-13T06:58:48.674Z,0.90
2023-01-13T07:02:50.479Z,1.38
2023-01-13T07:06:52.448Z,0.90
2023-01-13T07:10:54.372Z,0.90
2023-01-13T07:15:14.714Z,0.80
2023-01-13T07:19:23.201Z,0.88
2023-01-13T07:23:27.129Z,0.75
2023-01-13T07:27:28.881Z,1.00
2023-01-13T07:31:31.079Z,1.05
2023-01-13T07:35:32.865Z,1.10
2023-01-13T07:39:34.620Z,1.02
2023-01-13T07:43:36.392Z,0.90
2023-01-13T07:47:39.265Z,1.10
2023-01-13T07:51:41.060Z,1.05
2023-01-13T07:55:43.892Z,1.95
2023-01-13T07:59:45.671Z,1.30
2023-01-13T08:03:47.595Z,3.17
2023-01-13T08:07:49.444Z,1.85
2023-01-13T08:12:14.366Z,1.70
2023-01-13T08:16:17.045Z,1.65
2023-01-13T08:20:19.238Z,1.90
2023-01-13T08:24:21.022Z,2.13
2023-01-13T08:28:24.185Z,2.00
2023-01-13T08:32:25.948Z,1.90
2023-01-13T08:36:27.765Z,2.22
2023-01-13T08:40:29.612Z,1.30
2023-01-13T08:44:32.471Z,1.30
2023-01-13T08:48:34.306Z,0.80
2023-01-13T08:52:36.094Z,0.90
2023-01-13T08:56:39.057Z,0.90
2023-01-13T09:00:40.937Z,1.05
2023-01-13T09:04:42.888Z,0.90
2023-01-13T09:08:44.735Z,1.02
2023-01-13T09:13:05.223Z,1.90
2023-01-13T09:17:07.967Z,1.27
2023-01-13T09:21:11.190Z,1.50
2023-01-13T09:25:13.047Z,1.10
2023-01-13T09:29:15.369Z,1.40
2023-01-13T09:33:35.458Z,1.55
2023-01-13T09:37:39.375Z,1.27
2023-01-13T09:42:08.316Z,1.27
2023-01-13T09:46:40.434Z,2.45
2023-01-13T09:50:57.747Z,1.63
2023-01-13T09:55:15.022Z,2.92
2023-01-13T09:59:16.991Z,1.65
2023-01-13T10:03:28.651Z,2.45
2023-01-13T10:07:34.777Z,1.30
2023-01-13T10:11:59.239Z,1.75
2023-01-13T10:16:24.126Z,2.75
2023-01-13T10:20:48.955Z,1.40
2023-01-13T10:25:04.701Z,1.90
2023-01-13T10:29:20.716Z,1.20
2023-01-13T10:33:28.470Z,1.40
2023-01-13T10:37:30.582Z,2.53
2023-01-13T10:41:33.158Z,1.30
2023-01-13T10:45:34.908Z,1.30
2023-01-13T10:49:38.810Z,1.98
2023-01-13T10:54:14.227Z,1.75
2023-01-13T10:58:22.300Z,1.45
2023-01-13T11:02:31.409Z,2.20
2023-01-13T11:06:35.472Z,1.63
2023-01-13T11:10:46.110Z,1.30
2023-01-13T11:14:49.079Z,1.30
2023-01-13T11:19:12.204Z,1.13
2023-01-13T11:23:38.423Z,1.10
2023-01-13T11:27:46.994Z,1.73
2023-01-13T11:31:52.172Z,1.80
2023-01-13T11:36:06.029Z,1.70
2023-01-13T11:40:17.436Z,1.40
2023-01-13T11:44:38.608Z,1.40
2023-01-13T11:48:43.204Z,1.50
2023-01-13T11:53:00.510Z,1.58
2023-01-13T11:57:21.218Z,2.35
2023-01-13T12:01:36.436Z,1.80
2023-01-13T12:05:48.391Z,1.73
2023-01-13T12:10:13.737Z,1.50
2023-01-13T12:14:45.836Z,1.40
2023-01-13T12:19:11.739Z,1.20
2023-01-13T12:23:42.100Z,1.05
2023-01-13T12:27:51.701Z,1.92
2023-01-13T12:31:53.902Z,1.30
2023-01-13T12:36:02.015Z,1.73
2023-01-13T12:40:15.639Z,2.28
2023-01-13T12:44:17.460Z,1.60
2023-01-13T12:48:56.654Z,2.75
2023-01-13T12:53:29.876Z,1.60
2023-01-13T12:57:34.704Z,2.50
2023-01-13T13:01:37.351Z,1.60
2023-01-13T13:06:12.755Z,1.52
2023-01-13T13:10:30.236Z,1.92
2023-01-13T13:14:38.186Z,1.73
2023-01-13T13:18:40.040Z,1.10
2023-01-13T13:22:50.761Z,1.27
2023-01-13T13:26:52.627Z,1.38
2023-01-13T13:31:11.175Z,1.75
2023-01-13T13:35:20.628Z,1.88
2023-01-13T13:39:50.201Z,1.30
2023-01-13T13:44:10.767Z,1.63
2023-01-13T13:48:26.057Z,1.33
2023-01-13T13:52:32.447Z,1.35
2023-01-13T13:56:40.438Z,2.67
2023-01-13T14:00:48.355Z,1.52
2023-01-13T14:04:50.261Z,2.20
2023-01-13T14:08:52.042Z,1.52
2023-01-13T14:12:53.897Z,2.55
2023-01-13T14:16:56.350Z,2.40
2023-01-13T14:21:16.704Z,1.30
2023-01-13T14:25:34.975Z,1.20
2023-01-13T14:29:37.472Z,2.42
2023-01-13T14:33:43.698Z,2.03
2023-01-13T14:37:47.500Z,2.93
2023-01-13T14:41:50.735Z,2.85
2023-01-13T14:46:00.895Z,2.75
2023-01-13T14:50:11.753Z,4.10
2023-01-13T14:54:41.029Z,2.20
2023-01-13T14:58:42.868Z,2.05
2023-01-13T15:02:53.746Z,1.92
2023-01-13T15:06:57.430Z,2.00
2023-01-13T15:11:07.840Z,2.75
2023-01-13T15:15:46.198Z,2.50
2023-01-13T15:19:47.976Z,1.27
2023-01-13T15:23:49.990Z,1.27
2023-01-13T15:27:53.129Z,1.63
2023-01-13T15:31:54.912Z,1.30
2023-01-13T15:35:56.744Z,1.40
2023-01-13T15:39:58.486Z,1.05
2023-01-13T15:44:20.022Z,2.08
2023-01-13T15:48:23.473Z,1.40
2023-01-13T15:52:26.921Z,2.08
2023-01-13T15:56:28.905Z,1.98
2023-01-13T16:00:30.872Z,1.48
2023-01-13T16:04:32.716Z,2.03
2023-01-13T16:08:34.499Z,1.90
2023-01-13T16:12:37.624Z,4.32
2023-01-13T16:16:39.560Z,2.58
2023-01-13T16:20:42.434Z,1.75
2023-01-13T16:24:44.659Z,4.68
2023-01-13T16:28:46.870Z,1.30
2023-01-13T16:32:48.693Z,1.83
2023-01-13T16:36:50.414Z,3.00
2023-01-13T16:40:52.410Z,7.13
2023-01-13T16:44:54.173Z,10.38
2023-01-13T16:49:01.249Z,15.02
2023-01-13T16:57:07.775Z,2.60
2023-01-13T17:01:19.139Z,3.38
2023-01-13T17:05:21.249Z,3.38
2023-01-13T17:09:25.801Z,2.45
2023-01-13T17:13:27.630Z,5.00
2023-01-13T17:17:29.424Z,3.60
2023-01-13T17:21:31.208Z,2.58
2023-01-13T17:25:32.961Z,1.75
2023-01-13T17:29:35.017Z,2.78
2023-01-13T17:33:37.258Z,5.00
2023-01-13T17:37:39.032Z,7.60
2023-01-13T17:41:40.766Z,2.92
2023-01-13T17:45:42.616Z,1.77
2023-01-13T17:49:44.383Z,3.75
2023-01-13T17:53:46.769Z,2.92
2023-01-13T17:57:48.558Z,2.95
2023-01-13T18:01:51.770Z,5.00
2023-01-13T18:05:53.588Z,2.55
2023-01-13T18:09:55.333Z,3.05
2023-01-13T18:13:57.507Z,3.40
2023-01-13T18:17:59.273Z,4.65
2023-01-13T18:22:19.902Z,3.35
2023-01-13T18:26:40.313Z,2.47
2023-01-13T18:30:42.090Z,3.10
2023-01-13T18:34:44.000Z,4.97
2023-01-13T18:38:45.900Z,3.45
2023-01-13T18:42:58.877Z,4.00
2023-01-13T18:47:00.796Z,3.47
2023-01-13T18:51:02.645Z,2.53
2023-01-13T18:55:04.652Z,1.70
2023-01-13T18:59:06.504Z,4.20
2023-01-13T19:07:22.314Z,3.88
2023-01-13T19:11:25.040Z,2.15
2023-01-13T19:15:26.972Z,2.22
2023-01-13T19:19:29.287Z,5.93
2023-01-13T19:23:32.018Z,4.65
2023-01-13T19:27:33.847Z,6.00
2023-01-13T19:31:35.627Z,5.00
2023-01-13T19:35:37.772Z,4.30
2023-01-13T19:39:39.706Z,3.20
2023-01-13T19:44:00.128Z,2.33
2023-01-13T19:48:04.571Z,6.00
2023-01-13T19:52:06.369Z,11.27
2023-01-13T19:56:12.777Z,5.13
2023-01-13T20:00:20.354Z,5.28
2023-01-13T20:04:29.348Z,3.75
2023-01-13T20:08:31.112Z,4.43
2023-01-13T20:12:32.886Z,2.85
2023-01-13T20:16:34.718Z,2.25
2023-01-13T20:20:37.473Z,3.92
2023-01-13T20:24:39.439Z,2.75
2023-01-13T20:28:41.245Z,1.90
2023-01-13T20:32:43.815Z,3.78
2023-01-13T20:36:47.748Z,6.25
2023-01-13T20:40:58.798Z,7.22
2023-01-13T20:45:01.707Z,5.63
2023-01-13T20:49:03.600Z,6.93
2023-01-13T20:53:05.370Z,5.80
2023-01-13T20:57:09.979Z,2.30
2023-01-13T21:01:12.080Z,4.30
2023-01-13T21:05:14.277Z,2.83
2023-01-13T21:09:16.038Z,1.77
2023-01-13T21:13:36.327Z,4.28
2023-01-13T21:18:07.426Z,2.90
2023-01-13T21:22:09.163Z,4.78
2023-01-13T21:26:12.176Z,2.65
2023-01-13T21:30:15.536Z,3.40
2023-01-13T21:34:17.423Z,2.33
2023-01-13T21:38:19.388Z,3.03
2023-01-13T21:42:39.725Z,2.97
2023-01-13T21:47:00.108Z,3.15
2023-01-13T21:51:01.920Z,4.68
2023-01-13T21:55:17.268Z,4.80
2023-01-13T21:59:19.683Z,3.50
2023-01-13T22:03:21.452Z,2.78
2023-01-13T22:07:23.269Z,2.75
2023-01-13T22:11:25.020Z,2.50
2023-01-13T22:15:29.169Z,2.53
2023-01-13T22:19:30.939Z,4.35
2023-01-13T22:23:32.754Z,3.03
2023-01-13T22:27:44.702Z,1.48
2023-01-13T22:31:46.645Z,1.65
2023-01-13T22:35:54.538Z,1.40
2023-01-13T22:39:56.331Z,2.03
2023-01-13T22:43:58.130Z,1.35
2023-01-13T22:47:59.881Z,1.75
2023-01-13T22:52:02.040Z,2.03
2023-01-13T22:56:04.592Z,1.75
2023-01-13T23:00:07.795Z,2.30
2023-01-13T23:04:13.049Z,1.30
2023-01-13T23:08:15.105Z,1.88
2023-01-13T23:12:16.854Z,1.30
2023-01-13T23:16:23.723Z,1.52
2023-01-13T23:20:25.565Z,1.60
2023-01-13T23:24:29.293Z,1.27
2023-01-13T23:28:32.242Z,0.98
2023-01-13T23:32:35.797Z,1.27
2023-01-13T23:36:41.005Z,1.10
2023-01-13T23:40:45.358Z,2.97
2023-01-13T23:44:47.128Z,1.10
2023-01-13T23:48:50.144Z,0.88
2023-01-13T23:52:52.023Z,1.08
2023-01-13T23:56:53.857Z,1.77
